sensor_id;sensor_type;location;lat;lon;timestamp;P1;durP1;ratioP1;P2;durP2;ratioP2
68700;SDS011;55682;51.114;5.882;2023-04-03T00:00:28;7.38;;;7.38;;
68700;SDS011;55682;51.114;5.882;2023-04-03T00:02:54;7.43;;;7.43;;
68700;SDS011;55682;51.114;5.882;2023-04-03T00:05:20;7.53;;;7.53;;
68700;SDS011;55682;51.114;5.882;2023-04-03T00:07:45;7.45;;;7.45;;
68700;SDS011;55682;51.114;5.882;2023-04-03T00:10:11;7.80;;;7.80;;
68700;SDS011;55682;51.114;5.882;2023-04-03T00:12:37;7.75;;;7.75;;
68700;SDS011;55682;51.114;5.882;2023-04-03T00:15:03;7.64;;;7.64;;
68700;SDS011;55682;51.114;5.882;2023-04-03T00:17:29;7.13;;;7.13;;
68700;SDS011;55682;51.114;5.882;2023-04-03T00:19:54;7.26;;;7.26;;
68700;SDS011;55682;51.114;5.882;2023-04-03T00:22:20;7.23;;;7.23;;
68700;SDS011;55682;51.114;5.882;2023-04-03T00:24:46;7.52;;;7.52;;
68700;SDS011;55682;51.114;5.882;2023-04-03T00:27:11;7.27;;;7.27;;
68700;SDS011;55682;51.114;5.882;2023-04-03T00:29:37;7.19;;;7.19;;
68700;SDS011;55682;51.114;5.882;2023-04-03T00:32:02;7.02;;;7.02;;
68700;SDS011;55682;51.114;5.882;2023-04-03T00:34:28;7.46;;;7.46;;
68700;SDS011;55682;51.114;5.882;2023-04-03T00:36:54;7.33;;;7.33;;
68700;SDS011;55682;51.114;5.882;2023-04-03T00:39:19;7.39;;;7.39;;
68700;SDS011;55682;51.114;5.882;2023-04-03T00:41:45;7.45;;;7.45;;
68700;SDS011;55682;51.114;5.882;2023-04-03T00:44:21;7.67;;;7.67;;
68700;SDS011;55682;51.114;5.882;2023-04-03T00:47:08;7.72;;;7.72;;
68700;SDS011;55682;51.114;5.882;2023-04-03T00:49:38;7.61;;;7.61;;
68700;SDS011;55682;51.114;5.882;2023-04-03T00:52:06;7.81;;;7.81;;
68700;SDS011;55682;51.114;5.882;2023-04-03T00:54:39;7.64;;;7.64;;
68700;SDS011;55682;51.114;5.882;2023-04-03T00:57:08;7.66;;;7.66;;
68700;SDS011;55682;51.114;5.882;2023-04-03T00:59:38;7.80;;;7.80;;
68700;SDS011;55682;51.114;5.882;2023-04-03T01:02:15;7.50;;;7.50;;
68700;SDS011;55682;51.114;5.882;2023-04-03T01:04:42;7.33;;;7.33;;
68700;SDS011;55682;51.114;5.882;2023-04-03T01:07:10;7.99;;;7.99;;
68700;SDS011;55682;51.114;5.882;2023-04-03T01:09:39;7.88;;;7.88;;
68700;SDS011;55682;51.114;5.882;2023-04-03T01:12:25;8.12;;;8.12;;
68700;SDS011;55682;51.114;5.882;2023-04-03T01:14:57;8.11;;;8.11;;
68700;SDS011;55682;51.114;5.882;2023-04-03T01:25:36;8.58;;;8.58;;
68700;SDS011;55682;51.114;5.882;2023-04-03T01:28:04;8.18;;;8.18;;
68700;SDS011;55682;51.114;5.882;2023-04-03T01:30:33;8.93;;;8.93;;
68700;SDS011;55682;51.114;5.882;2023-04-03T01:33:05;8.09;;;8.09;;
68700;SDS011;55682;51.114;5.882;2023-04-03T01:35:32;8.32;;;8.32;;
68700;SDS011;55682;51.114;5.882;2023-04-03T01:37:57;8.33;;;8.33;;
68700;SDS011;55682;51.114;5.882;2023-04-03T01:40:23;8.33;;;8.33;;
68700;SDS011;55682;51.114;5.882;2023-04-03T01:42:49;8.81;;;8.81;;
68700;SDS011;55682;51.114;5.882;2023-04-03T01:45:15;8.84;;;8.84;;
68700;SDS011;55682;51.114;5.882;2023-04-03T01:47:40;8.78;;;8.78;;
68700;SDS011;55682;51.114;5.882;2023-04-03T01:50:06;8.98;;;8.98;;
68700;SDS011;55682;51.114;5.882;2023-04-03T01:52:33;9.08;;;9.08;;
68700;SDS011;55682;51.114;5.882;2023-04-03T01:54:59;8.87;;;8.87;;
68700;SDS011;55682;51.114;5.882;2023-04-03T01:57:25;8.97;;;8.97;;
68700;SDS011;55682;51.114;5.882;2023-04-03T01:59:50;9.21;;;9.21;;
68700;SDS011;55682;51.114;5.882;2023-04-03T02:02:16;9.16;;;9.16;;
68700;SDS011;55682;51.114;5.882;2023-04-03T02:04:42;9.40;;;9.40;;
68700;SDS011;55682;51.114;5.882;2023-04-03T02:07:08;9.46;;;9.46;;
68700;SDS011;55682;51.114;5.882;2023-04-03T02:09:34;9.48;;;9.48;;
68700;SDS011;55682;51.114;5.882;2023-04-03T02:12:00;9.96;;;9.96;;
68700;SDS011;55682;51.114;5.882;2023-04-03T02:14:25;9.93;;;9.93;;
68700;SDS011;55682;51.114;5.882;2023-04-03T02:16:52;10.19;;;10.19;;
68700;SDS011;55682;51.114;5.882;2023-04-03T02:19:20;9.96;;;9.96;;
68700;SDS011;55682;51.114;5.882;2023-04-03T02:21:45;10.27;;;10.27;;
68700;SDS011;55682;51.114;5.882;2023-04-03T02:24:11;9.90;;;9.90;;
68700;SDS011;55682;51.114;5.882;2023-04-03T02:26:37;10.10;;;10.10;;
68700;SDS011;55682;51.114;5.882;2023-04-03T02:29:03;9.80;;;9.80;;
68700;SDS011;55682;51.114;5.882;2023-04-03T02:31:29;10.09;;;10.09;;
68700;SDS011;55682;51.114;5.882;2023-04-03T02:33:56;9.73;;;9.73;;
68700;SDS011;55682;51.114;5.882;2023-04-03T02:36:21;9.74;;;9.74;;
68700;SDS011;55682;51.114;5.882;2023-04-03T02:38:52;9.45;;;9.45;;
68700;SDS011;55682;51.114;5.882;2023-04-03T02:41:18;9.55;;;9.55;;
68700;SDS011;55682;51.114;5.882;2023-04-03T02:43:43;9.34;;;9.34;;
68700;SDS011;55682;51.114;5.882;2023-04-03T02:46:09;9.75;;;9.75;;
68700;SDS011;55682;51.114;5.882;2023-04-03T02:48:35;9.05;;;9.05;;
68700;SDS011;55682;51.114;5.882;2023-04-03T02:51:01;8.91;;;8.91;;
68700;SDS011;55682;51.114;5.882;2023-04-03T02:53:27;9.48;;;9.48;;
68700;SDS011;55682;51.114;5.882;2023-04-03T02:55:53;9.46;;;9.46;;
68700;SDS011;55682;51.114;5.882;2023-04-03T02:58:19;8.77;;;8.77;;
68700;SDS011;55682;51.114;5.882;2023-04-03T03:00:45;9.53;;;9.53;;
68700;SDS011;55682;51.114;5.882;2023-04-03T03:03:10;10.01;;;10.01;;
68700;SDS011;55682;51.114;5.882;2023-04-03T03:05:36;9.39;;;9.39;;
68700;SDS011;55682;51.114;5.882;2023-04-03T03:08:01;9.49;;;9.49;;
68700;SDS011;55682;51.114;5.882;2023-04-03T03:10:27;9.39;;;9.39;;
68700;SDS011;55682;51.114;5.882;2023-04-03T03:12:53;9.86;;;9.86;;
68700;SDS011;55682;51.114;5.882;2023-04-03T03:15:18;9.95;;;9.95;;
68700;SDS011;55682;51.114;5.882;2023-04-03T03:17:44;10.13;;;10.13;;
68700;SDS011;55682;51.114;5.882;2023-04-03T03:20:10;11.01;;;11.01;;
68700;SDS011;55682;51.114;5.882;2023-04-03T03:22:37;10.56;;;10.56;;
68700;SDS011;55682;51.114;5.882;2023-04-03T03:25:03;10.65;;;10.65;;
68700;SDS011;55682;51.114;5.882;2023-04-03T03:27:29;10.66;;;10.66;;
68700;SDS011;55682;51.114;5.882;2023-04-03T03:29:54;11.06;;;11.06;;
68700;SDS011;55682;51.114;5.882;2023-04-03T03:32:21;10.39;;;10.39;;
68700;SDS011;55682;51.114;5.882;2023-04-03T03:34:46;10.70;;;10.70;;
68700;SDS011;55682;51.114;5.882;2023-04-03T03:37:12;10.40;;;10.40;;
68700;SDS011;55682;51.114;5.882;2023-04-03T03:39:37;10.71;;;10.71;;
68700;SDS011;55682;51.114;5.882;2023-04-03T03:42:03;10.48;;;10.48;;
68700;SDS011;55682;51.114;5.882;2023-04-03T03:44:29;10.51;;;10.51;;
68700;SDS011;55682;51.114;5.882;2023-04-03T03:46:55;10.64;;;10.64;;
68700;SDS011;55682;51.114;5.882;2023-04-03T03:49:21;10.67;;;10.67;;
68700;SDS011;55682;51.114;5.882;2023-04-03T03:51:47;10.44;;;10.44;;
68700;SDS011;55682;51.114;5.882;2023-04-03T03:54:13;10.60;;;10.60;;
68700;SDS011;55682;51.114;5.882;2023-04-03T03:56:39;10.50;;;10.50;;
68700;SDS011;55682;51.114;5.882;2023-04-03T03:59:05;10.82;;;10.82;;
68700;SDS011;55682;51.114;5.882;2023-04-03T04:01:33;10.41;;;10.41;;
68700;SDS011;55682;51.114;5.882;2023-04-03T04:03:59;10.69;;;10.69;;
68700;SDS011;55682;51.114;5.882;2023-04-03T04:06:29;10.82;;;10.82;;
68700;SDS011;55682;51.114;5.882;2023-04-03T04:08:58;10.49;;;10.49;;
68700;SDS011;55682;51.114;5.882;2023-04-03T04:11:24;10.83;;;10.83;;
68700;SDS011;55682;51.114;5.882;2023-04-03T04:13:52;10.20;;;10.20;;
68700;SDS011;55682;51.114;5.882;2023-04-03T04:16:19;10.48;;;10.48;;
68700;SDS011;55682;51.114;5.882;2023-04-03T04:18:45;10.91;;;10.91;;
68700;SDS011;55682;51.114;5.882;2023-04-03T04:21:11;10.52;;;10.52;;
68700;SDS011;55682;51.114;5.882;2023-04-03T04:23:38;10.70;;;10.70;;
68700;SDS011;55682;51.114;5.882;2023-04-03T04:26:03;10.56;;;10.56;;
68700;SDS011;55682;51.114;5.882;2023-04-03T04:28:33;10.31;;;10.31;;
68700;SDS011;55682;51.114;5.882;2023-04-03T04:31:00;10.52;;;10.52;;
68700;SDS011;55682;51.114;5.882;2023-04-03T04:33:27;10.24;;;10.24;;
68700;SDS011;55682;51.114;5.882;2023-04-03T04:35:54;10.32;;;10.32;;
68700;SDS011;55682;51.114;5.882;2023-04-03T04:38:20;10.20;;;10.20;;
68700;SDS011;55682;51.114;5.882;2023-04-03T04:40:47;10.03;;;10.03;;
68700;SDS011;55682;51.114;5.882;2023-04-03T04:43:13;9.86;;;9.86;;
68700;SDS011;55682;51.114;5.882;2023-04-03T04:45:41;9.69;;;9.69;;
68700;SDS011;55682;51.114;5.882;2023-04-03T04:48:08;9.30;;;9.30;;
68700;SDS011;55682;51.114;5.882;2023-04-03T04:50:34;9.53;;;9.53;;
68700;SDS011;55682;51.114;5.882;2023-04-03T04:52:59;9.50;;;9.50;;
68700;SDS011;55682;51.114;5.882;2023-04-03T04:55:25;8.90;;;8.90;;
68700;SDS011;55682;51.114;5.882;2023-04-03T04:57:51;8.42;;;8.42;;
68700;SDS011;55682;51.114;5.882;2023-04-03T05:00:17;8.44;;;8.44;;
68700;SDS011;55682;51.114;5.882;2023-04-03T05:02:43;8.50;;;8.50;;
68700;SDS011;55682;51.114;5.882;2023-04-03T05:05:09;8.38;;;8.38;;
68700;SDS011;55682;51.114;5.882;2023-04-03T05:07:36;8.33;;;8.33;;
68700;SDS011;55682;51.114;5.882;2023-04-03T05:10:02;8.27;;;8.27;;
68700;SDS011;55682;51.114;5.882;2023-04-03T05:12:30;8.10;;;8.10;;
68700;SDS011;55682;51.114;5.882;2023-04-03T05:14:59;7.70;;;7.70;;
68700;SDS011;55682;51.114;5.882;2023-04-03T05:17:26;7.21;;;7.21;;
68700;SDS011;55682;51.114;5.882;2023-04-03T05:19:54;7.01;;;7.01;;
68700;SDS011;55682;51.114;5.882;2023-04-03T05:22:21;7.06;;;7.06;;
68700;SDS011;55682;51.114;5.882;2023-04-03T05:24:48;6.89;;;6.89;;
68700;SDS011;55682;51.114;5.882;2023-04-03T05:27:15;6.90;;;6.90;;
68700;SDS011;55682;51.114;5.882;2023-04-03T05:29:45;7.58;;;7.58;;
68700;SDS011;55682;51.114;5.882;2023-04-03T05:32:15;7.48;;;7.48;;
68700;SDS011;55682;51.114;5.882;2023-04-03T05:34:42;7.40;;;7.40;;
68700;SDS011;55682;51.114;5.882;2023-04-03T05:37:07;7.10;;;7.10;;
68700;SDS011;55682;51.114;5.882;2023-04-03T05:39:33;7.28;;;7.28;;
68700;SDS011;55682;51.114;5.882;2023-04-03T05:42:01;7.32;;;7.32;;
68700;SDS011;55682;51.114;5.882;2023-04-03T05:44:27;7.16;;;7.16;;
68700;SDS011;55682;51.114;5.882;2023-04-03T05:46:54;7.24;;;7.24;;
68700;SDS011;55682;51.114;5.882;2023-04-03T05:49:19;7.06;;;7.06;;
68700;SDS011;55682;51.114;5.882;2023-04-03T05:51:45;6.64;;;6.64;;
68700;SDS011;55682;51.114;5.882;2023-04-03T05:54:23;6.65;;;6.65;;
68700;SDS011;55682;51.114;5.882;2023-04-03T05:56:55;6.40;;;6.40;;
68700;SDS011;55682;51.114;5.882;2023-04-03T05:59:22;6.12;;;6.12;;
68700;SDS011;55682;51.114;5.882;2023-04-03T06:01:50;6.13;;;6.13;;
68700;SDS011;55682;51.114;5.882;2023-04-03T06:04:16;6.30;;;6.30;;
68700;SDS011;55682;51.114;5.882;2023-04-03T06:09:14;5.37;;;5.37;;
68700;SDS011;55682;51.114;5.882;2023-04-03T06:11:41;5.91;;;5.91;;
68700;SDS011;55682;51.114;5.882;2023-04-03T06:14:07;5.88;;;5.88;;
68700;SDS011;55682;51.114;5.882;2023-04-03T06:16:33;4.81;;;4.81;;
68700;SDS011;55682;51.114;5.882;2023-04-03T06:18:59;5.27;;;5.27;;
68700;SDS011;55682;51.114;5.882;2023-04-03T06:21:26;5.18;;;5.18;;
68700;SDS011;55682;51.114;5.882;2023-04-03T06:23:52;4.78;;;4.78;;
68700;SDS011;55682;51.114;5.882;2023-04-03T06:26:17;5.91;;;5.91;;
68700;SDS011;55682;51.114;5.882;2023-04-03T06:28:43;6.86;;;6.86;;
68700;SDS011;55682;51.114;5.882;2023-04-03T06:31:09;5.93;;;5.93;;
68700;SDS011;55682;51.114;5.882;2023-04-03T06:33:34;5.34;;;5.34;;
68700;SDS011;55682;51.114;5.882;2023-04-03T06:36:03;4.79;;;4.79;;
68700;SDS011;55682;51.114;5.882;2023-04-03T06:38:30;5.85;;;5.85;;
68700;SDS011;55682;51.114;5.882;2023-04-03T06:40:56;5.11;;;5.11;;
68700;SDS011;55682;51.114;5.882;2023-04-03T06:43:22;5.45;;;5.45;;
68700;SDS011;55682;51.114;5.882;2023-04-03T06:45:48;6.27;;;6.27;;
68700;SDS011;55682;51.114;5.882;2023-04-03T06:48:13;5.21;;;5.21;;
68700;SDS011;55682;51.114;5.882;2023-04-03T06:50:39;4.79;;;4.79;;
68700;SDS011;55682;51.114;5.882;2023-04-03T06:53:05;6.05;;;6.05;;
68700;SDS011;55682;51.114;5.882;2023-04-03T06:55:32;4.57;;;4.57;;
68700;SDS011;55682;51.114;5.882;2023-04-03T06:57:58;4.28;;;4.28;;
68700;SDS011;55682;51.114;5.882;2023-04-03T07:00:23;4.75;;;4.75;;
68700;SDS011;55682;51.114;5.882;2023-04-03T07:02:50;4.62;;;4.62;;
68700;SDS011;55682;51.114;5.882;2023-04-03T07:05:16;3.61;;;3.61;;
68700;SDS011;55682;51.114;5.882;2023-04-03T07:07:42;4.15;;;4.15;;
68700;SDS011;55682;51.114;5.882;2023-04-03T07:10:08;3.53;;;3.53;;
68700;SDS011;55682;51.114;5.882;2023-04-03T07:12:35;3.71;;;3.71;;
68700;SDS011;55682;51.114;5.882;2023-04-03T07:15:01;3.79;;;3.79;;
68700;SDS011;55682;51.114;5.882;2023-04-03T07:17:26;3.63;;;3.63;;
68700;SDS011;55682;51.114;5.882;2023-04-03T07:19:52;4.45;;;4.45;;
68700;SDS011;55682;51.114;5.882;2023-04-03T07:22:18;4.01;;;4.01;;
68700;SDS011;55682;51.114;5.882;2023-04-03T07:24:43;3.33;;;3.33;;
68700;SDS011;55682;51.114;5.882;2023-04-03T07:27:09;3.32;;;3.32;;
68700;SDS011;55682;51.114;5.882;2023-04-03T07:29:35;3.47;;;3.47;;
68700;SDS011;55682;51.114;5.882;2023-04-03T07:32:01;3.81;;;3.81;;
68700;SDS011;55682;51.114;5.882;2023-04-03T07:34:28;4.08;;;4.08;;
68700;SDS011;55682;51.114;5.882;2023-04-03T07:36:53;3.88;;;3.88;;
68700;SDS011;55682;51.114;5.882;2023-04-03T07:39:19;4.13;;;4.13;;
68700;SDS011;55682;51.114;5.882;2023-04-03T07:41:45;4.67;;;4.67;;
68700;SDS011;55682;51.114;5.882;2023-04-03T07:44:11;3.73;;;3.73;;
68700;SDS011;55682;51.114;5.882;2023-04-03T07:46:36;4.11;;;4.11;;
68700;SDS011;55682;51.114;5.882;2023-04-03T07:49:03;3.40;;;3.40;;
68700;SDS011;55682;51.114;5.882;2023-04-03T07:51:28;3.55;;;3.55;;
68700;SDS011;55682;51.114;5.882;2023-04-03T07:53:55;3.76;;;3.76;;
68700;SDS011;55682;51.114;5.882;2023-04-03T07:56:21;3.87;;;3.87;;
68700;SDS011;55682;51.114;5.882;2023-04-03T07:58:46;3.65;;;3.65;;
68700;SDS011;55682;51.114;5.882;2023-04-03T08:01:12;2.88;;;2.88;;
68700;SDS011;55682;51.114;5.882;2023-04-03T08:03:38;3.51;;;3.51;;
68700;SDS011;55682;51.114;5.882;2023-04-03T08:06:05;2.91;;;2.91;;
68700;SDS011;55682;51.114;5.882;2023-04-03T08:08:33;3.79;;;3.79;;
68700;SDS011;55682;51.114;5.882;2023-04-03T08:11:01;3.77;;;3.77;;
68700;SDS011;55682;51.114;5.882;2023-04-03T08:13:28;3.62;;;3.62;;
68700;SDS011;55682;51.114;5.882;2023-04-03T08:15:55;3.83;;;3.83;;
68700;SDS011;55682;51.114;5.882;2023-04-03T08:18:23;3.86;;;3.86;;
68700;SDS011;55682;51.114;5.882;2023-04-03T08:20:50;3.73;;;3.73;;
68700;SDS011;55682;51.114;5.882;2023-04-03T08:23:17;3.66;;;3.65;;
68700;SDS011;55682;51.114;5.882;2023-04-03T08:25:43;3.07;;;3.07;;
68700;SDS011;55682;51.114;5.882;2023-04-03T08:28:10;3.11;;;3.11;;
68700;SDS011;55682;51.114;5.882;2023-04-03T08:30:38;3.12;;;3.12;;
68700;SDS011;55682;51.114;5.882;2023-04-03T08:33:07;2.46;;;2.45;;
68700;SDS011;55682;51.114;5.882;2023-04-03T08:35:37;1.94;;;1.93;;
68700;SDS011;55682;51.114;5.882;2023-04-03T08:38:07;2.51;;;2.50;;
68700;SDS011;55682;51.114;5.882;2023-04-03T08:40:34;2.44;;;2.44;;
68700;SDS011;55682;51.114;5.882;2023-04-03T08:43:10;2.59;;;2.59;;
68700;SDS011;55682;51.114;5.882;2023-04-03T08:45:55;2.43;;;2.43;;
68700;SDS011;55682;51.114;5.882;2023-04-03T08:48:36;1.66;;;1.66;;
68700;SDS011;55682;51.114;5.882;2023-04-03T08:51:12;1.71;;;1.71;;
68700;SDS011;55682;51.114;5.882;2023-04-03T08:53:46;2.31;;;2.31;;
68700;SDS011;55682;51.114;5.882;2023-04-03T08:56:23;2.22;;;2.22;;
68700;SDS011;55682;51.114;5.882;2023-04-03T08:58:58;2.40;;;2.40;;
68700;SDS011;55682;51.114;5.882;2023-04-03T09:01:30;2.34;;;2.34;;
68700;SDS011;55682;51.114;5.882;2023-04-03T09:04:10;2.37;;;2.37;;
68700;SDS011;55682;51.114;5.882;2023-04-03T09:06:39;2.48;;;2.48;;
68700;SDS011;55682;51.114;5.882;2023-04-03T09:09:28;2.20;;;2.20;;
68700;SDS011;55682;51.114;5.882;2023-04-03T09:12:13;2.39;;;2.39;;
68700;SDS011;55682;51.114;5.882;2023-04-03T09:22:49;2.13;;;2.13;;
68700;SDS011;55682;51.114;5.882;2023-04-03T09:25:27;1.89;;;1.88;;
68700;SDS011;55682;51.114;5.882;2023-04-03T09:27:59;1.19;;;1.19;;
68700;SDS011;55682;51.114;5.882;2023-04-03T09:30:26;1.81;;;1.80;;
68700;SDS011;55682;51.114;5.882;2023-04-03T09:32:54;1.74;;;1.73;;
68700;SDS011;55682;51.114;5.882;2023-04-03T09:35:29;0.98;;;0.98;;
68700;SDS011;55682;51.114;5.882;2023-04-03T09:38:01;0.96;;;0.96;;
68700;SDS011;55682;51.114;5.882;2023-04-03T09:40:42;0.87;;;0.87;;
68700;SDS011;55682;51.114;5.882;2023-04-03T09:43:24;0.82;;;0.82;;
68700;SDS011;55682;51.114;5.882;2023-04-03T09:45:52;0.88;;;0.88;;
68700;SDS011;55682;51.114;5.882;2023-04-03T09:48:20;0.68;;;0.68;;
68700;SDS011;55682;51.114;5.882;2023-04-03T09:56:09;0.87;;;0.87;;
68700;SDS011;55682;51.114;5.882;2023-04-03T09:58:48;0.85;;;0.85;;
68700;SDS011;55682;51.114;5.882;2023-04-03T10:01:29;1.05;;;1.05;;
68700;SDS011;55682;51.114;5.882;2023-04-03T10:09:20;0.89;;;0.89;;
68700;SDS011;55682;51.114;5.882;2023-04-03T10:14:35;0.89;;;0.89;;
68700;SDS011;55682;51.114;5.882;2023-04-03T10:19:58;0.95;;;0.95;;
68700;SDS011;55682;51.114;5.882;2023-04-03T10:25:38;0.83;;;0.83;;
68700;SDS011;55682;51.114;5.882;2023-04-03T10:28:38;0.95;;;0.95;;
68700;SDS011;55682;51.114;5.882;2023-04-03T10:31:18;6.72;;;6.72;;
68700;SDS011;55682;51.114;5.882;2023-04-03T10:39:11;0.90;;;0.89;;
68700;SDS011;55682;51.114;5.882;2023-04-03T10:41:51;0.94;;;0.94;;
68700;SDS011;55682;51.114;5.882;2023-04-03T10:44:34;0.88;;;0.88;;
68700;SDS011;55682;51.114;5.882;2023-04-03T10:47:14;0.97;;;0.97;;
68700;SDS011;55682;51.114;5.882;2023-04-03T10:52:23;0.88;;;0.88;;
68700;SDS011;55682;51.114;5.882;2023-04-03T10:57:38;1.35;;;1.35;;
68700;SDS011;55682;51.114;5.882;2023-04-03T11:00:06;1.23;;;1.23;;
68700;SDS011;55682;51.114;5.882;2023-04-03T11:02:59;0.92;;;0.92;;
68700;SDS011;55682;51.114;5.882;2023-04-03T11:05:44;1.02;;;1.02;;
68700;SDS011;55682;51.114;5.882;2023-04-03T11:11:16;1.19;;;1.19;;
68700;SDS011;55682;51.114;5.882;2023-04-03T11:13:51;0.94;;;0.94;;
68700;SDS011;55682;51.114;5.882;2023-04-03T11:16:25;1.06;;;1.06;;
68700;SDS011;55682;51.114;5.882;2023-04-03T11:19:02;1.02;;;1.02;;
68700;SDS011;55682;51.114;5.882;2023-04-03T11:21:41;0.94;;;0.94;;
68700;SDS011;55682;51.114;5.882;2023-04-03T11:24:20;1.17;;;1.17;;
68700;SDS011;55682;51.114;5.882;2023-04-03T11:26:50;0.88;;;0.88;;
68700;SDS011;55682;51.114;5.882;2023-04-03T11:29:22;1.09;;;1.09;;
68700;SDS011;55682;51.114;5.882;2023-04-03T11:32:09;1.19;;;1.19;;
68700;SDS011;55682;51.114;5.882;2023-04-03T11:34:51;1.14;;;1.14;;
68700;SDS011;55682;51.114;5.882;2023-04-03T11:37:33;1.20;;;1.20;;
68700;SDS011;55682;51.114;5.882;2023-04-03T11:40:07;1.28;;;1.28;;
68700;SDS011;55682;51.114;5.882;2023-04-03T11:43:02;1.58;;;1.58;;
68700;SDS011;55682;51.114;5.882;2023-04-03T11:50:58;1.43;;;1.43;;
68700;SDS011;55682;51.114;5.882;2023-04-03T11:53:48;1.07;;;1.07;;
68700;SDS011;55682;51.114;5.882;2023-04-03T12:04:23;1.14;;;1.14;;
68700;SDS011;55682;51.114;5.882;2023-04-03T12:15:20;1.35;;;1.35;;
68700;SDS011;55682;51.114;5.882;2023-04-03T12:21:13;1.49;;;1.49;;
68700;SDS011;55682;51.114;5.882;2023-04-03T12:29:29;1.41;;;1.41;;
68700;SDS011;55682;51.114;5.882;2023-04-03T12:40:39;1.47;;;1.46;;
68700;SDS011;55682;51.114;5.882;2023-04-03T12:43:20;1.54;;;1.53;;
68700;SDS011;55682;51.114;5.882;2023-04-03T12:46:02;1.55;;;1.54;;
68700;SDS011;55682;51.114;5.882;2023-04-03T12:48:30;1.65;;;1.65;;
68700;SDS011;55682;51.114;5.882;2023-04-03T12:51:02;1.44;;;1.44;;
68700;SDS011;55682;51.114;5.882;2023-04-03T12:53:33;1.29;;;1.29;;
68700;SDS011;55682;51.114;5.882;2023-04-03T12:58:46;1.44;;;1.44;;
68700;SDS011;55682;51.114;5.882;2023-04-03T13:01:13;1.41;;;1.41;;
68700;SDS011;55682;51.114;5.882;2023-04-03T13:03:50;1.39;;;1.39;;
68700;SDS011;55682;51.114;5.882;2023-04-03T13:06:23;1.64;;;1.64;;
68700;SDS011;55682;51.114;5.882;2023-04-03T13:08:53;1.87;;;1.87;;
68700;SDS011;55682;51.114;5.882;2023-04-03T13:11:23;1.81;;;1.81;;
68700;SDS011;55682;51.114;5.882;2023-04-03T13:13:57;1.97;;;1.97;;
68700;SDS011;55682;51.114;5.882;2023-04-03T13:16:25;2.25;;;2.25;;
68700;SDS011;55682;51.114;5.882;2023-04-03T13:18:53;1.54;;;1.54;;
68700;SDS011;55682;51.114;5.882;2023-04-03T13:21:21;1.88;;;1.88;;
68700;SDS011;55682;51.114;5.882;2023-04-03T13:23:50;1.84;;;1.84;;
68700;SDS011;55682;51.114;5.882;2023-04-03T13:26:18;1.66;;;1.65;;
68700;SDS011;55682;51.114;5.882;2023-04-03T13:28:47;1.70;;;1.69;;
68700;SDS011;55682;51.114;5.882;2023-04-03T13:33:51;1.56;;;1.53;;
68700;SDS011;55682;51.114;5.882;2023-04-03T13:36:23;1.69;;;1.66;;
68700;SDS011;55682;51.114;5.882;2023-04-03T13:41:39;1.77;;;1.76;;
68700;SDS011;55682;51.114;5.882;2023-04-03T13:46:48;1.56;;;1.56;;
68700;SDS011;55682;51.114;5.882;2023-04-03T13:51:48;1.43;;;1.41;;
68700;SDS011;55682;51.114;5.882;2023-04-03T13:54:20;1.68;;;1.66;;
68700;SDS011;55682;51.114;5.882;2023-04-03T13:56:59;1.66;;;1.64;;
68700;SDS011;55682;51.114;5.882;2023-04-03T13:59:33;1.77;;;1.75;;
68700;SDS011;55682;51.114;5.882;2023-04-03T14:07:09;1.35;;;1.34;;
68700;SDS011;55682;51.114;5.882;2023-04-03T14:09:36;1.59;;;1.59;;
68700;SDS011;55682;51.114;5.882;2023-04-03T14:12:07;1.29;;;1.29;;
68700;SDS011;55682;51.114;5.882;2023-04-03T14:14:38;1.27;;;1.27;;
68700;SDS011;55682;51.114;5.882;2023-04-03T14:17:15;1.63;;;1.63;;
68700;SDS011;55682;51.114;5.882;2023-04-03T14:19:44;1.10;;;1.09;;
68700;SDS011;55682;51.114;5.882;2023-04-03T14:22:32;1.29;;;1.28;;
68700;SDS011;55682;51.114;5.882;2023-04-03T14:24:57;1.47;;;1.47;;
68700;SDS011;55682;51.114;5.882;2023-04-03T14:27:25;1.47;;;1.47;;
68700;SDS011;55682;51.114;5.882;2023-04-03T14:29:59;1.28;;;1.28;;
68700;SDS011;55682;51.114;5.882;2023-04-03T14:32:28;1.52;;;1.52;;
68700;SDS011;55682;51.114;5.882;2023-04-03T14:34:54;1.50;;;1.50;;
68700;SDS011;55682;51.114;5.882;2023-04-03T14:37:21;1.58;;;1.58;;
68700;SDS011;55682;51.114;5.882;2023-04-03T14:39:50;1.42;;;1.42;;
68700;SDS011;55682;51.114;5.882;2023-04-03T14:42:28;1.66;;;1.66;;
68700;SDS011;55682;51.114;5.882;2023-04-03T14:45:00;1.65;;;1.65;;
68700;SDS011;55682;51.114;5.882;2023-04-03T14:47:28;1.40;;;1.40;;
68700;SDS011;55682;51.114;5.882;2023-04-03T14:49:55;1.85;;;1.85;;
68700;SDS011;55682;51.114;5.882;2023-04-03T14:52:24;1.90;;;1.90;;
68700;SDS011;55682;51.114;5.882;2023-04-03T14:54:52;1.76;;;1.76;;
68700;SDS011;55682;51.114;5.882;2023-04-03T14:57:19;1.71;;;1.70;;
68700;SDS011;55682;51.114;5.882;2023-04-03T14:59:49;1.29;;;1.28;;
68700;SDS011;55682;51.114;5.882;2023-04-03T15:02:32;1.28;;;1.27;;
68700;SDS011;55682;51.114;5.882;2023-04-03T15:05:01;1.64;;;1.64;;
68700;SDS011;55682;51.114;5.882;2023-04-03T15:07:33;1.85;;;1.84;;
68700;SDS011;55682;51.114;5.882;2023-04-03T15:10:25;1.52;;;1.52;;
68700;SDS011;55682;51.114;5.882;2023-04-03T15:12:51;1.18;;;1.18;;
68700;SDS011;55682;51.114;5.882;2023-04-03T15:15:19;1.29;;;1.29;;
68700;SDS011;55682;51.114;5.882;2023-04-03T15:17:47;1.22;;;1.22;;
68700;SDS011;55682;51.114;5.882;2023-04-03T15:20:20;1.30;;;1.30;;
68700;SDS011;55682;51.114;5.882;2023-04-03T15:22:47;1.63;;;1.63;;
68700;SDS011;55682;51.114;5.882;2023-04-03T15:25:13;1.34;;;1.34;;
68700;SDS011;55682;51.114;5.882;2023-04-03T15:27:40;1.48;;;1.48;;
68700;SDS011;55682;51.114;5.882;2023-04-03T15:30:07;1.34;;;1.34;;
68700;SDS011;55682;51.114;5.882;2023-04-03T15:32:36;1.37;;;1.37;;
68700;SDS011;55682;51.114;5.882;2023-04-03T15:35:02;1.36;;;1.36;;
68700;SDS011;55682;51.114;5.882;2023-04-03T15:37:27;1.39;;;1.39;;
68700;SDS011;55682;51.114;5.882;2023-04-03T15:39:53;1.56;;;1.56;;
68700;SDS011;55682;51.114;5.882;2023-04-03T15:42:19;1.64;;;1.64;;
68700;SDS011;55682;51.114;5.882;2023-04-03T15:44:45;1.69;;;1.69;;
68700;SDS011;55682;51.114;5.882;2023-04-03T15:47:11;1.79;;;1.79;;
68700;SDS011;55682;51.114;5.882;2023-04-03T15:49:37;1.28;;;1.28;;
68700;SDS011;55682;51.114;5.882;2023-04-03T15:52:03;1.29;;;1.28;;
68700;SDS011;55682;51.114;5.882;2023-04-03T15:54:29;1.83;;;1.80;;
68700;SDS011;55682;51.114;5.882;2023-04-03T15:56:55;1.87;;;1.86;;
68700;SDS011;55682;51.114;5.882;2023-04-03T15:59:21;1.53;;;1.53;;
68700;SDS011;55682;51.114;5.882;2023-04-03T16:01:47;1.78;;;1.78;;
68700;SDS011;55682;51.114;5.882;2023-04-03T16:04:14;1.58;;;1.55;;
68700;SDS011;55682;51.114;5.882;2023-04-03T16:06:40;1.72;;;1.70;;
68700;SDS011;55682;51.114;5.882;2023-04-03T16:09:07;1.34;;;1.32;;
68700;SDS011;55682;51.114;5.882;2023-04-03T16:11:33;1.27;;;1.27;;
68700;SDS011;55682;51.114;5.882;2023-04-03T16:14:00;1.20;;;1.20;;
68700;SDS011;55682;51.114;5.882;2023-04-03T16:16:26;1.37;;;1.36;;
68700;SDS011;55682;51.114;5.882;2023-04-03T16:18:55;1.35;;;1.35;;
68700;SDS011;55682;51.114;5.882;2023-04-03T16:21:22;1.57;;;1.57;;
68700;SDS011;55682;51.114;5.882;2023-04-03T16:23:49;1.32;;;1.31;;
68700;SDS011;55682;51.114;5.882;2023-04-03T16:26:15;1.27;;;1.26;;
68700;SDS011;55682;51.114;5.882;2023-04-03T16:28:42;1.43;;;1.43;;
68700;SDS011;55682;51.114;5.882;2023-04-03T16:31:08;1.35;;;1.35;;
68700;SDS011;55682;51.114;5.882;2023-04-03T16:33:35;1.66;;;1.66;;
68700;SDS011;55682;51.114;5.882;2023-04-03T16:36:02;1.70;;;1.70;;
68700;SDS011;55682;51.114;5.882;2023-04-03T16:38:29;1.41;;;1.41;;
68700;SDS011;55682;51.114;5.882;2023-04-03T16:40:55;1.24;;;1.24;;
68700;SDS011;55682;51.114;5.882;2023-04-03T16:43:24;1.17;;;1.17;;
68700;SDS011;55682;51.114;5.882;2023-04-03T16:45:50;1.19;;;1.19;;